createdAt,value
2022-10-14T10:58:37.797Z,78.93
2022-10-14T11:04:03.237Z,78.52
2022-10-14T11:09:36.471Z,79.05
2022-10-14T11:15:10.172Z,79.63
2022-10-14T11:20:30.582Z,79.74
2022-10-14T11:25:49.642Z,79.41
2022-10-14T11:31:07.932Z,80.03
2022-10-14T11:36:29.090Z,80.59
2022-10-14T11:41:59.389Z,78.83
2022-10-14T11:47:13.952Z,78.04
2022-10-14T11:52:27.489Z,78.50
2022-10-14T11:57:38.519Z,77.90
2022-10-14T12:02:54.493Z,77.74
2022-10-14T12:08:11.615Z,78.15
2022-10-14T12:13:23.243Z,78.06
2022-10-14T12:18:33.155Z,78.39
2022-10-14T12:23:45.231Z,77.57
2022-10-14T12:28:54.029Z,76.73
2022-10-14T12:34:35.011Z,75.35
2022-10-14T12:39:44.916Z,76.01
2022-10-14T12:44:56.424Z,77.14
2022-10-14T12:50:23.825Z,76.16
2022-10-14T12:55:35.179Z,75.85
2022-10-14T13:00:44.691Z,75.76
2022-10-14T13:05:52.671Z,76.34
2022-10-14T13:11:14.876Z,76.04
2022-10-14T13:17:28.995Z,76.16
2022-10-14T13:22:41.686Z,76.49
2022-10-14T13:28:23.235Z,77.55
2022-10-14T13:33:39.891Z,78.51
2022-10-14T13:38:56.852Z,78.23
2022-10-14T13:44:04.114Z,78.15
2022-10-14T13:54:31.464Z,78.92
2022-10-14T13:59:43.945Z,78.02
2022-10-14T14:05:17.026Z,78.24
2022-10-14T14:10:26.759Z,78.20
2022-10-14T14:15:32.918Z,77.83
2022-10-14T14:20:38.871Z,78.04
2022-10-14T14:26:17.841Z,78.59
2022-10-14T14:31:20.903Z,78.40
2022-10-14T14:36:50.143Z,78.81
2022-10-14T14:42:01.161Z,78.97
2022-10-14T14:47:07.656Z,79.45
2022-10-14T14:52:15.526Z,79.50
2022-10-14T14:57:24.345Z,79.73
2022-10-14T15:02:34.554Z,80.43
2022-10-14T15:07:45.114Z,80.40
2022-10-14T15:12:57.348Z,80.63
2022-10-14T15:18:21.489Z,80.61
2022-10-14T15:23:42.026Z,80.82
2022-10-14T15:29:03.481Z,81.05
2022-10-14T15:34:20.922Z,81.38
2022-10-14T15:39:27.028Z,81.66
2022-10-14T15:44:35.436Z,81.73
2022-10-14T15:49:43.991Z,81.66
2022-10-14T15:54:51.098Z,82.27
2022-10-14T15:59:58.877Z,82.16
2022-10-14T16:05:21.089Z,82.27
2022-10-14T16:10:32.050Z,82.94
2022-10-14T16:15:50.069Z,83.14
2022-10-14T16:20:57.569Z,84.22
2022-10-14T16:26:06.060Z,83.83
2022-10-14T16:31:16.121Z,83.77
2022-10-14T16:36:23.583Z,83.96
2022-10-14T16:41:31.177Z,84.10
2022-10-14T16:46:56.303Z,83.72
2022-10-14T16:52:02.445Z,83.43
2022-10-14T16:57:09.520Z,83.76
2022-10-14T17:02:18.476Z,83.78
2022-10-14T17:07:24.811Z,83.87
2022-10-14T17:12:31.091Z,83.43
2022-10-14T17:17:40.380Z,83.82
2022-10-14T17:22:46.558Z,83.81
2022-10-14T17:27:52.631Z,83.73
2022-10-14T17:33:00.287Z,83.82
2022-10-14T17:38:07.612Z,83.81
2022-10-14T17:43:13.700Z,83.76
2022-10-14T17:48:21.052Z,83.83
2022-10-14T17:53:28.117Z,83.50
2022-10-14T17:58:34.370Z,83.37
2022-10-14T18:03:45.266Z,83.17
2022-10-14T18:08:54.945Z,83.37
2022-10-14T18:14:04.770Z,83.41
2022-10-14T18:19:17.246Z,83.41
2022-10-14T18:24:24.120Z,83.38
2022-10-14T18:29:30.415Z,83.46
2022-10-14T18:34:38.620Z,83.58
2022-10-14T18:39:46.198Z,82.72
2022-10-14T18:44:52.967Z,83.11
2022-10-14T18:50:00.564Z,83.07
2022-10-14T18:55:07.964Z,82.43
2022-10-14T19:00:17.794Z,82.12
2022-10-14T19:05:29.614Z,81.88
2022-10-14T19:10:39.087Z,82.78
2022-10-14T19:15:51.401Z,81.72
2022-10-14T19:21:09.628Z,81.69
2022-10-14T19:26:19.718Z,81.68
2022-10-14T19:31:29.595Z,81.03
2022-10-14T19:36:40.619Z,81.69
2022-10-14T19:41:47.872Z,81.66
2022-10-14T19:46:54.693Z,80.82
2022-10-14T19:52:02.780Z,80.05
2022-10-14T19:57:09.146Z,80.15
2022-10-14T20:02:15.203Z,80.38
2022-10-14T20:07:23.251Z,80.80
2022-10-14T20:12:29.898Z,80.36
2022-10-14T20:17:36.158Z,80.00
2022-10-14T20:22:43.707Z,79.27
2022-10-14T20:27:50.961Z,79.01
2022-10-14T20:32:57.364Z,79.50
2022-10-14T20:38:05.886Z,80.04
2022-10-14T20:43:14.178Z,79.73
2022-10-14T20:48:20.668Z,80.99
2022-10-14T20:53:29.175Z,80.42
2022-10-14T20:58:35.443Z,78.53
2022-10-14T21:03:43.252Z,78.21
2022-10-14T21:08:52.686Z,79.04
2022-10-14T21:20:11.945Z,77.52
2022-10-14T21:25:19.857Z,78.50
2022-10-14T21:30:26.318Z,79.15
2022-10-14T21:35:32.764Z,77.97
2022-10-14T21:40:40.578Z,78.89
2022-10-14T21:45:46.951Z,79.03
2022-10-14T21:51:04.463Z,78.31
2022-10-14T21:56:15.990Z,77.74
2022-10-14T22:01:26.393Z,78.08
2022-10-14T22:06:34.278Z,79.14
2022-10-14T22:11:43.378Z,79.01
2022-10-14T22:16:50.294Z,78.23
2022-10-14T22:21:59.477Z,77.96
2022-10-14T22:27:07.499Z,76.24
2022-10-14T22:32:16.310Z,77.33
2022-10-14T22:37:22.865Z,77.82
2022-10-14T22:42:32.186Z,77.55
2022-10-14T22:47:38.418Z,75.67
2022-10-14T22:52:44.632Z,75.89
2022-10-14T22:57:52.906Z,75.86
2022-10-14T23:02:59.195Z,76.76
2022-10-14T23:08:10.057Z,76.24
2022-10-14T23:13:17.746Z,76.76
2022-10-14T23:18:24.214Z,75.88
2022-10-14T23:23:30.586Z,76.77
2022-10-14T23:28:38.712Z,76.10
2022-10-14T23:33:45.310Z,77.47
2022-10-14T23:38:53.133Z,75.62
2022-10-14T23:44:00.938Z,75.71
2022-10-14T23:49:21.214Z,76.84
2022-10-14T23:54:31.366Z,76.28
2022-10-14T23:59:40.016Z,76.76
